sensor_id;sensor_type;location;lat;lon;timestamp;temperature;humidity
16229;DHT22;8222;51.462;12.630;2023-03-31T00:00:45;11.50;99.90
16229;DHT22;8222;51.462;12.630;2023-03-31T00:03:12;11.60;99.90
16229;DHT22;8222;51.462;12.630;2023-03-31T00:05:38;11.60;99.90
16229;DHT22;8222;51.462;12.630;2023-03-31T00:08:06;11.70;99.90
16229;DHT22;8222;51.462;12.630;2023-03-31T00:10:33;11.70;99.90
16229;DHT22;8222;51.462;12.630;2023-03-31T00:13:02;11.70;99.90
16229;DHT22;8222;51.462;12.630;2023-03-31T00:15:28;11.70;99.90
16229;DHT22;8222;51.462;12.630;2023-03-31T00:17:54;11.70;99.90
16229;DHT22;8222;51.462;12.630;2023-03-31T00:20:24;11.60;99.90
16229;DHT22;8222;51.462;12.630;2023-03-31T00:22:50;11.70;99.90
16229;DHT22;8222;51.462;12.630;2023-03-31T00:25:19;11.80;99.90
16229;DHT22;8222;51.462;12.630;2023-03-31T00:27:45;11.80;99.90
16229;DHT22;8222;51.462;12.630;2023-03-31T00:30:12;11.80;99.90
16229;DHT22;8222;51.462;12.630;2023-03-31T00:32:38;11.70;99.90
16229;DHT22;8222;51.462;12.630;2023-03-31T00:35:04;11.70;99.90
16229;DHT22;8222;51.462;12.630;2023-03-31T00:37:30;11.70;99.90
16229;DHT22;8222;51.462;12.630;2023-03-31T00:40:00;11.80;99.90
16229;DHT22;8222;51.462;12.630;2023-03-31T00:42:26;11.80;99.90
16229;DHT22;8222;51.462;12.630;2023-03-31T00:48:13;11.80;99.90
16229;DHT22;8222;51.462;12.630;2023-03-31T00:50:50;11.70;99.90
16229;DHT22;8222;51.462;12.630;2023-03-31T00:53:20;11.60;99.90
16229;DHT22;8222;51.462;12.630;2023-03-31T00:55:51;11.60;99.90
16229;DHT22;8222;51.462;12.630;2023-03-31T00:58:18;11.60;99.90
16229;DHT22;8222;51.462;12.630;2023-03-31T01:00:49;11.50;99.90
16229;DHT22;8222;51.462;12.630;2023-03-31T01:03:19;11.50;99.90
16229;DHT22;8222;51.462;12.630;2023-03-31T01:06:22;11.50;99.90
16229;DHT22;8222;51.462;12.630;2023-03-31T01:08:45;11.50;99.90
16229;DHT22;8222;51.462;12.630;2023-03-31T01:11:14;11.50;99.90
16229;DHT22;8222;51.462;12.630;2023-03-31T01:13:41;11.60;99.90
16229;DHT22;8222;51.462;12.630;2023-03-31T01:16:08;11.50;99.90
16229;DHT22;8222;51.462;12.630;2023-03-31T01:18:34;11.40;99.90
16229;DHT22;8222;51.462;12.630;2023-03-31T01:29:32;11.20;99.90
16229;DHT22;8222;51.462;12.630;2023-03-31T01:35:07;11.00;99.90
16229;DHT22;8222;51.462;12.630;2023-03-31T01:46:01;11.00;99.90
16229;DHT22;8222;51.462;12.630;2023-03-31T01:51:29;11.00;99.90
16229;DHT22;8222;51.462;12.630;2023-03-31T01:54:19;10.90;99.90
16229;DHT22;8222;51.462;12.630;2023-03-31T01:56:50;10.90;99.90
16229;DHT22;8222;51.462;12.630;2023-03-31T01:59:23;10.90;99.90
16229;DHT22;8222;51.462;12.630;2023-03-31T02:01:58;11.00;99.90
16229;DHT22;8222;51.462;12.630;2023-03-31T02:04:37;11.00;99.90
16229;DHT22;8222;51.462;12.630;2023-03-31T02:07:20;11.00;99.90
16229;DHT22;8222;51.462;12.630;2023-03-31T02:09:52;10.90;99.90
16229;DHT22;8222;51.462;12.630;2023-03-31T02:12:21;10.90;99.90
16229;DHT22;8222;51.462;12.630;2023-03-31T02:14:51;10.90;99.90
16229;DHT22;8222;51.462;12.630;2023-03-31T02:17:22;10.80;99.90
16229;DHT22;8222;51.462;12.630;2023-03-31T02:19:57;10.90;99.90
16229;DHT22;8222;51.462;12.630;2023-03-31T02:22:25;10.80;99.90
16229;DHT22;8222;51.462;12.630;2023-03-31T02:24:52;10.70;99.90
16229;DHT22;8222;51.462;12.630;2023-03-31T02:27:30;10.70;99.90
16229;DHT22;8222;51.462;12.630;2023-03-31T02:29:58;10.70;99.90
16229;DHT22;8222;51.462;12.630;2023-03-31T02:34:54;10.60;99.90
16229;DHT22;8222;51.462;12.630;2023-03-31T02:37:20;10.60;99.90
16229;DHT22;8222;51.462;12.630;2023-03-31T02:39:48;10.60;99.90
16229;DHT22;8222;51.462;12.630;2023-03-31T02:42:15;10.70;99.90
16229;DHT22;8222;51.462;12.630;2023-03-31T02:44:41;10.90;99.90
16229;DHT22;8222;51.462;12.630;2023-03-31T02:47:10;10.90;99.90
16229;DHT22;8222;51.462;12.630;2023-03-31T02:49:39;10.90;99.90
16229;DHT22;8222;51.462;12.630;2023-03-31T03:03:43;11.10;99.90
16229;DHT22;8222;51.462;12.630;2023-03-31T03:06:53;11.10;99.90
16229;DHT22;8222;51.462;12.630;2023-03-31T03:14:59;11.20;99.90
16229;DHT22;8222;51.462;12.630;2023-03-31T03:17:45;11.20;99.90
16229;DHT22;8222;51.462;12.630;2023-03-31T03:20:12;11.30;99.90
16229;DHT22;8222;51.462;12.630;2023-03-31T03:22:39;11.30;99.90
16229;DHT22;8222;51.462;12.630;2023-03-31T03:25:10;11.40;99.90
16229;DHT22;8222;51.462;12.630;2023-03-31T03:27:36;11.40;99.90
16229;DHT22;8222;51.462;12.630;2023-03-31T03:30:04;11.60;99.90
16229;DHT22;8222;51.462;12.630;2023-03-31T03:32:30;11.50;99.90
16229;DHT22;8222;51.462;12.630;2023-03-31T03:35:01;11.50;99.90
16229;DHT22;8222;51.462;12.630;2023-03-31T03:37:28;11.40;99.90
16229;DHT22;8222;51.462;12.630;2023-03-31T03:39:54;11.50;99.90
16229;DHT22;8222;51.462;12.630;2023-03-31T03:42:20;11.50;99.90
16229;DHT22;8222;51.462;12.630;2023-03-31T03:44:47;11.50;99.90
16229;DHT22;8222;51.462;12.630;2023-03-31T03:47:13;11.50;99.90
16229;DHT22;8222;51.462;12.630;2023-03-31T03:49:39;11.60;99.90
16229;DHT22;8222;51.462;12.630;2023-03-31T03:52:05;11.80;99.90
16229;DHT22;8222;51.462;12.630;2023-03-31T03:54:33;11.80;99.90
16229;DHT22;8222;51.462;12.630;2023-03-31T03:56:59;11.70;99.90
16229;DHT22;8222;51.462;12.630;2023-03-31T03:59:24;11.70;99.90
16229;DHT22;8222;51.462;12.630;2023-03-31T04:01:50;11.70;99.90
16229;DHT22;8222;51.462;12.630;2023-03-31T04:04:17;11.60;99.90
16229;DHT22;8222;51.462;12.630;2023-03-31T04:06:42;11.60;99.90
16229;DHT22;8222;51.462;12.630;2023-03-31T04:09:08;11.60;99.90
16229;DHT22;8222;51.462;12.630;2023-03-31T04:11:34;11.50;99.90
16229;DHT22;8222;51.462;12.630;2023-03-31T04:14:00;11.50;99.90
16229;DHT22;8222;51.462;12.630;2023-03-31T04:16:25;11.50;99.90
16229;DHT22;8222;51.462;12.630;2023-03-31T04:18:52;11.70;99.90
16229;DHT22;8222;51.462;12.630;2023-03-31T04:21:21;11.60;99.90
16229;DHT22;8222;51.462;12.630;2023-03-31T04:23:51;11.50;99.90
16229;DHT22;8222;51.462;12.630;2023-03-31T04:26:30;11.50;99.90
16229;DHT22;8222;51.462;12.630;2023-03-31T04:29:08;11.60;99.90
16229;DHT22;8222;51.462;12.630;2023-03-31T04:31:34;11.50;99.90
16229;DHT22;8222;51.462;12.630;2023-03-31T04:34:05;11.50;99.90
16229;DHT22;8222;51.462;12.630;2023-03-31T04:36:32;11.50;99.90
16229;DHT22;8222;51.462;12.630;2023-03-31T04:38:59;11.40;99.90
16229;DHT22;8222;51.462;12.630;2023-03-31T04:41:26;11.50;99.90
16229;DHT22;8222;51.462;12.630;2023-03-31T04:43:52;11.70;99.90
16229;DHT22;8222;51.462;12.630;2023-03-31T04:46:18;11.70;99.90
16229;DHT22;8222;51.462;12.630;2023-03-31T04:48:44;11.60;99.90
16229;DHT22;8222;51.462;12.630;2023-03-31T04:51:12;11.60;99.90
16229;DHT22;8222;51.462;12.630;2023-03-31T04:53:39;11.70;99.90
16229;DHT22;8222;51.462;12.630;2023-03-31T04:56:05;11.70;99.90
16229;DHT22;8222;51.462;12.630;2023-03-31T04:58:32;11.80;99.90
16229;DHT22;8222;51.462;12.630;2023-03-31T05:00:57;11.90;99.90
16229;DHT22;8222;51.462;12.630;2023-03-31T05:03:23;12.00;99.90
16229;DHT22;8222;51.462;12.630;2023-03-31T05:05:50;11.90;99.90
16229;DHT22;8222;51.462;12.630;2023-03-31T05:08:16;11.90;99.90
16229;DHT22;8222;51.462;12.630;2023-03-31T05:10:42;11.90;99.90
16229;DHT22;8222;51.462;12.630;2023-03-31T05:13:11;11.90;99.90
16229;DHT22;8222;51.462;12.630;2023-03-31T05:15:38;11.80;99.90
16229;DHT22;8222;51.462;12.630;2023-03-31T05:18:04;11.80;99.90
16229;DHT22;8222;51.462;12.630;2023-03-31T05:20:30;11.90;99.90
16229;DHT22;8222;51.462;12.630;2023-03-31T05:22:55;11.80;99.90
16229;DHT22;8222;51.462;12.630;2023-03-31T05:25:23;11.80;99.90
16229;DHT22;8222;51.462;12.630;2023-03-31T05:27:48;11.70;99.90
16229;DHT22;8222;51.462;12.630;2023-03-31T05:30:16;11.60;99.90
16229;DHT22;8222;51.462;12.630;2023-03-31T05:32:42;11.50;99.90
16229;DHT22;8222;51.462;12.630;2023-03-31T05:35:10;11.50;99.90
16229;DHT22;8222;51.462;12.630;2023-03-31T05:37:36;11.40;99.90
16229;DHT22;8222;51.462;12.630;2023-03-31T05:40:02;11.40;99.90
16229;DHT22;8222;51.462;12.630;2023-03-31T05:42:29;11.40;99.90
16229;DHT22;8222;51.462;12.630;2023-03-31T05:44:55;11.40;99.90
16229;DHT22;8222;51.462;12.630;2023-03-31T05:47:23;11.40;99.90
16229;DHT22;8222;51.462;12.630;2023-03-31T05:49:49;11.30;99.90
16229;DHT22;8222;51.462;12.630;2023-03-31T05:52:15;11.40;99.90
16229;DHT22;8222;51.462;12.630;2023-03-31T05:54:41;11.50;99.90
16229;DHT22;8222;51.462;12.630;2023-03-31T05:57:07;11.50;99.90
16229;DHT22;8222;51.462;12.630;2023-03-31T05:59:34;11.60;99.90
16229;DHT22;8222;51.462;12.630;2023-03-31T06:02:01;11.60;99.90
16229;DHT22;8222;51.462;12.630;2023-03-31T06:04:27;11.60;99.90
16229;DHT22;8222;51.462;12.630;2023-03-31T06:06:55;11.70;99.90
16229;DHT22;8222;51.462;12.630;2023-03-31T06:09:23;11.80;99.90
16229;DHT22;8222;51.462;12.630;2023-03-31T06:11:48;11.90;99.90
16229;DHT22;8222;51.462;12.630;2023-03-31T06:14:14;12.00;99.90
16229;DHT22;8222;51.462;12.630;2023-03-31T06:16:40;12.00;99.90
16229;DHT22;8222;51.462;12.630;2023-03-31T06:19:08;12.10;99.90
16229;DHT22;8222;51.462;12.630;2023-03-31T06:21:33;12.30;99.90
16229;DHT22;8222;51.462;12.630;2023-03-31T06:24:00;12.50;99.90
16229;DHT22;8222;51.462;12.630;2023-03-31T06:26:28;12.60;99.90
16229;DHT22;8222;51.462;12.630;2023-03-31T06:28:53;12.90;99.90
16229;DHT22;8222;51.462;12.630;2023-03-31T06:31:21;13.00;99.90
16229;DHT22;8222;51.462;12.630;2023-03-31T06:33:49;13.10;99.90
16229;DHT22;8222;51.462;12.630;2023-03-31T06:36:17;13.30;99.90
16229;DHT22;8222;51.462;12.630;2023-03-31T06:38:44;13.40;99.90
16229;DHT22;8222;51.462;12.630;2023-03-31T06:41:11;13.40;99.90
16229;DHT22;8222;51.462;12.630;2023-03-31T06:43:38;13.50;99.90
16229;DHT22;8222;51.462;12.630;2023-03-31T06:46:04;13.60;99.90
16229;DHT22;8222;51.462;12.630;2023-03-31T06:48:30;13.70;99.90
16229;DHT22;8222;51.462;12.630;2023-03-31T06:50:58;13.70;99.90
16229;DHT22;8222;51.462;12.630;2023-03-31T06:53:25;13.60;99.90
16229;DHT22;8222;51.462;12.630;2023-03-31T06:55:52;13.80;99.90
16229;DHT22;8222;51.462;12.630;2023-03-31T06:58:18;13.60;99.90
16229;DHT22;8222;51.462;12.630;2023-03-31T07:00:44;13.60;99.90
16229;DHT22;8222;51.462;12.630;2023-03-31T07:03:11;13.60;99.90
16229;DHT22;8222;51.462;12.630;2023-03-31T07:05:37;13.70;99.90
16229;DHT22;8222;51.462;12.630;2023-03-31T07:08:04;13.80;99.90
16229;DHT22;8222;51.462;12.630;2023-03-31T07:10:31;13.80;99.90
16229;DHT22;8222;51.462;12.630;2023-03-31T07:12:58;13.80;99.90
16229;DHT22;8222;51.462;12.630;2023-03-31T07:15:25;13.80;99.90
16229;DHT22;8222;51.462;12.630;2023-03-31T07:17:55;13.80;99.90
16229;DHT22;8222;51.462;12.630;2023-03-31T07:20:26;13.70;99.90
16229;DHT22;8222;51.462;12.630;2023-03-31T07:22:54;13.80;99.90
16229;DHT22;8222;51.462;12.630;2023-03-31T07:25:20;13.80;99.90
16229;DHT22;8222;51.462;12.630;2023-03-31T07:27:46;13.80;99.90
16229;DHT22;8222;51.462;12.630;2023-03-31T07:30:17;13.90;99.90
16229;DHT22;8222;51.462;12.630;2023-03-31T07:32:48;14.10;99.90
16229;DHT22;8222;51.462;12.630;2023-03-31T07:35:17;14.30;99.90
16229;DHT22;8222;51.462;12.630;2023-03-31T07:37:45;14.50;99.90
16229;DHT22;8222;51.462;12.630;2023-03-31T07:40:14;14.70;99.90
16229;DHT22;8222;51.462;12.630;2023-03-31T07:42:40;14.80;99.90
16229;DHT22;8222;51.462;12.630;2023-03-31T07:45:07;15.10;99.90
16229;DHT22;8222;51.462;12.630;2023-03-31T07:47:33;15.00;99.90
16229;DHT22;8222;51.462;12.630;2023-03-31T07:49:59;15.00;99.90
16229;DHT22;8222;51.462;12.630;2023-03-31T07:52:25;15.00;99.90
16229;DHT22;8222;51.462;12.630;2023-03-31T07:54:51;14.90;99.90
16229;DHT22;8222;51.462;12.630;2023-03-31T07:57:16;14.80;99.90
16229;DHT22;8222;51.462;12.630;2023-03-31T07:59:45;14.80;99.90
16229;DHT22;8222;51.462;12.630;2023-03-31T08:02:13;14.80;99.90
16229;DHT22;8222;51.462;12.630;2023-03-31T08:04:40;14.80;99.90
16229;DHT22;8222;51.462;12.630;2023-03-31T08:07:07;14.90;99.90
16229;DHT22;8222;51.462;12.630;2023-03-31T08:09:33;14.90;99.90
16229;DHT22;8222;51.462;12.630;2023-03-31T08:11:59;15.20;99.90
16229;DHT22;8222;51.462;12.630;2023-03-31T08:14:24;15.00;99.90
16229;DHT22;8222;51.462;12.630;2023-03-31T08:16:50;14.80;99.90
16229;DHT22;8222;51.462;12.630;2023-03-31T08:19:17;14.80;99.90
16229;DHT22;8222;51.462;12.630;2023-03-31T08:21:45;14.70;99.90
16229;DHT22;8222;51.462;12.630;2023-03-31T08:24:11;14.70;99.90
16229;DHT22;8222;51.462;12.630;2023-03-31T08:26:36;14.90;99.90
16229;DHT22;8222;51.462;12.630;2023-03-31T08:29:02;15.10;99.90
16229;DHT22;8222;51.462;12.630;2023-03-31T08:31:28;15.30;99.90
16229;DHT22;8222;51.462;12.630;2023-03-31T08:33:54;15.40;99.90
16229;DHT22;8222;51.462;12.630;2023-03-31T08:36:20;15.50;99.90
16229;DHT22;8222;51.462;12.630;2023-03-31T08:38:46;15.70;99.90
16229;DHT22;8222;51.462;12.630;2023-03-31T08:44:18;16.10;99.90
16229;DHT22;8222;51.462;12.630;2023-03-31T08:46:46;16.50;99.90
16229;DHT22;8222;51.462;12.630;2023-03-31T08:49:17;16.50;99.90
16229;DHT22;8222;51.462;12.630;2023-03-31T08:51:50;16.70;99.90
16229;DHT22;8222;51.462;12.630;2023-03-31T08:54:30;16.80;99.90
16229;DHT22;8222;51.462;12.630;2023-03-31T08:56:56;16.90;99.90
16229;DHT22;8222;51.462;12.630;2023-03-31T08:59:30;16.90;99.90
16229;DHT22;8222;51.462;12.630;2023-03-31T09:12:24;16.40;99.90
16229;DHT22;8222;51.462;12.630;2023-03-31T09:15:00;16.30;99.90
16229;DHT22;8222;51.462;12.630;2023-03-31T09:17:29;16.30;99.90
16229;DHT22;8222;51.462;12.630;2023-03-31T09:20:00;16.20;99.90
16229;DHT22;8222;51.462;12.630;2023-03-31T09:22:40;16.20;99.90
16229;DHT22;8222;51.462;12.630;2023-03-31T09:25:11;16.40;99.90
16229;DHT22;8222;51.462;12.630;2023-03-31T09:27:39;16.50;99.90
16229;DHT22;8222;51.462;12.630;2023-03-31T09:30:28;16.50;99.90
16229;DHT22;8222;51.462;12.630;2023-03-31T09:33:25;16.20;99.90
16229;DHT22;8222;51.462;12.630;2023-03-31T09:35:59;16.00;99.90
16229;DHT22;8222;51.462;12.630;2023-03-31T09:38:25;16.00;99.90
16229;DHT22;8222;51.462;12.630;2023-03-31T09:41:00;15.80;99.90
16229;DHT22;8222;51.462;12.630;2023-03-31T09:43:30;15.70;99.90
16229;DHT22;8222;51.462;12.630;2023-03-31T09:45:59;15.60;99.90
16229;DHT22;8222;51.462;12.630;2023-03-31T09:48:29;15.50;99.90
16229;DHT22;8222;51.462;12.630;2023-03-31T09:51:00;15.70;99.90
16229;DHT22;8222;51.462;12.630;2023-03-31T09:53:44;15.70;99.90
16229;DHT22;8222;51.462;12.630;2023-03-31T09:56:11;15.80;99.90
16229;DHT22;8222;51.462;12.630;2023-03-31T09:58:44;15.80;99.90
16229;DHT22;8222;51.462;12.630;2023-03-31T10:01:14;15.70;99.90
16229;DHT22;8222;51.462;12.630;2023-03-31T10:03:53;15.70;99.90
16229;DHT22;8222;51.462;12.630;2023-03-31T10:06:20;15.60;99.90
16229;DHT22;8222;51.462;12.630;2023-03-31T10:08:54;15.80;99.90
16229;DHT22;8222;51.462;12.630;2023-03-31T10:11:22;15.70;99.90
16229;DHT22;8222;51.462;12.630;2023-03-31T10:13:50;15.60;99.90
16229;DHT22;8222;51.462;12.630;2023-03-31T10:19:18;15.40;99.90
16229;DHT22;8222;51.462;12.630;2023-03-31T10:21:47;15.20;99.90
16229;DHT22;8222;51.462;12.630;2023-03-31T10:24:17;15.10;99.90
16229;DHT22;8222;51.462;12.630;2023-03-31T10:26:47;15.00;99.90
16229;DHT22;8222;51.462;12.630;2023-03-31T10:29:20;14.90;99.90
16229;DHT22;8222;51.462;12.630;2023-03-31T10:31:49;14.80;99.90
16229;DHT22;8222;51.462;12.630;2023-03-31T10:34:16;15.00;99.90
16229;DHT22;8222;51.462;12.630;2023-03-31T10:36:50;15.10;99.90
16229;DHT22;8222;51.462;12.630;2023-03-31T10:39:18;14.90;99.90
16229;DHT22;8222;51.462;12.630;2023-03-31T10:41:49;14.90;99.90
16229;DHT22;8222;51.462;12.630;2023-03-31T10:44:36;14.90;99.90
16229;DHT22;8222;51.462;12.630;2023-03-31T10:47:31;14.80;99.90
16229;DHT22;8222;51.462;12.630;2023-03-31T10:49:57;14.70;99.90
16229;DHT22;8222;51.462;12.630;2023-03-31T10:52:25;14.70;99.90
16229;DHT22;8222;51.462;12.630;2023-03-31T10:54:59;14.50;99.90
16229;DHT22;8222;51.462;12.630;2023-03-31T10:57:53;14.40;99.90
16229;DHT22;8222;51.462;12.630;2023-03-31T11:08:10;14.10;99.90
16229;DHT22;8222;51.462;12.630;2023-03-31T11:13:31;14.00;99.90
16229;DHT22;8222;51.462;12.630;2023-03-31T11:16:15;14.00;99.90
16229;DHT22;8222;51.462;12.630;2023-03-31T11:21:23;13.90;99.90
16229;DHT22;8222;51.462;12.630;2023-03-31T11:24:20;13.80;99.90
16229;DHT22;8222;51.462;12.630;2023-03-31T11:35:22;13.70;99.90
16229;DHT22;8222;51.462;12.630;2023-03-31T11:38:34;13.70;99.90
16229;DHT22;8222;51.462;12.630;2023-03-31T11:41:18;13.70;99.90
16229;DHT22;8222;51.462;12.630;2023-03-31T11:43:47;13.80;99.90
16229;DHT22;8222;51.462;12.630;2023-03-31T11:46:59;13.80;99.90
16229;DHT22;8222;51.462;12.630;2023-03-31T11:49:36;13.80;99.90
16229;DHT22;8222;51.462;12.630;2023-03-31T11:52:17;13.70;99.90
16229;DHT22;8222;51.462;12.630;2023-03-31T11:55:00;13.70;99.90
16229;DHT22;8222;51.462;12.630;2023-03-31T11:57:37;13.60;99.90
16229;DHT22;8222;51.462;12.630;2023-03-31T12:02:40;13.40;99.90
16229;DHT22;8222;51.462;12.630;2023-03-31T12:05:11;13.60;99.90
16229;DHT22;8222;51.462;12.630;2023-03-31T12:07:47;13.50;99.90
16229;DHT22;8222;51.462;12.630;2023-03-31T12:10:21;13.50;99.90
16229;DHT22;8222;51.462;12.630;2023-03-31T12:12:58;13.50;99.90
16229;DHT22;8222;51.462;12.630;2023-03-31T12:15:45;13.40;99.90
16229;DHT22;8222;51.462;12.630;2023-03-31T12:18:16;13.30;99.90
16229;DHT22;8222;51.462;12.630;2023-03-31T12:20:50;13.30;99.90
16229;DHT22;8222;51.462;12.630;2023-03-31T12:23:26;13.30;99.90
16229;DHT22;8222;51.462;12.630;2023-03-31T12:28:35;13.40;99.90
16229;DHT22;8222;51.462;12.630;2023-03-31T12:31:04;13.50;99.90
16229;DHT22;8222;51.462;12.630;2023-03-31T12:33:37;13.40;99.90
16229;DHT22;8222;51.462;12.630;2023-03-31T12:41:55;13.80;99.90
16229;DHT22;8222;51.462;12.630;2023-03-31T13:03:46;14.40;99.90
16229;DHT22;8222;51.462;12.630;2023-03-31T13:06:47;14.50;99.90
16229;DHT22;8222;51.462;12.630;2023-03-31T13:12:07;14.10;99.90
16229;DHT22;8222;51.462;12.630;2023-03-31T13:14:42;13.90;99.90
16229;DHT22;8222;51.462;12.630;2023-03-31T13:17:29;14.00;99.90
16229;DHT22;8222;51.462;12.630;2023-03-31T13:20:23;14.00;99.90
16229;DHT22;8222;51.462;12.630;2023-03-31T13:23:03;14.20;99.90
16229;DHT22;8222;51.462;12.630;2023-03-31T13:25:43;14.30;99.90
16229;DHT22;8222;51.462;12.630;2023-03-31T13:30:49;14.50;99.90
16229;DHT22;8222;51.462;12.630;2023-03-31T13:42:44;15.40;99.90
16229;DHT22;8222;51.462;12.630;2023-03-31T13:50:45;15.70;99.90
16229;DHT22;8222;51.462;12.630;2023-03-31T14:06:56;16.90;99.90
16229;DHT22;8222;51.462;12.630;2023-03-31T14:09:29;17.00;99.90
16229;DHT22;8222;51.462;12.630;2023-03-31T14:11:59;17.00;99.90
16229;DHT22;8222;51.462;12.630;2023-03-31T14:14:25;17.20;99.90
16229;DHT22;8222;51.462;12.630;2023-03-31T14:17:01;17.20;99.90
16229;DHT22;8222;51.462;12.630;2023-03-31T14:31:32;17.40;99.90
16229;DHT22;8222;51.462;12.630;2023-03-31T14:34:55;17.60;99.90
16229;DHT22;8222;51.462;12.630;2023-03-31T14:37:15;17.60;99.90
16229;DHT22;8222;51.462;12.630;2023-03-31T14:39:49;17.50;99.90
16229;DHT22;8222;51.462;12.630;2023-03-31T14:42:20;17.70;99.90
16229;DHT22;8222;51.462;12.630;2023-03-31T14:44:46;17.80;99.90
16229;DHT22;8222;51.462;12.630;2023-03-31T14:47:26;17.60;99.90
16229;DHT22;8222;51.462;12.630;2023-03-31T14:50:16;17.50;99.90
16229;DHT22;8222;51.462;12.630;2023-03-31T14:52:49;17.40;99.90
16229;DHT22;8222;51.462;12.630;2023-03-31T14:55:22;16.90;99.90
16229;DHT22;8222;51.462;12.630;2023-03-31T14:57:50;16.70;99.90
16229;DHT22;8222;51.462;12.630;2023-03-31T15:00:33;16.60;99.90
16229;DHT22;8222;51.462;12.630;2023-03-31T15:03:01;16.40;99.90
16229;DHT22;8222;51.462;12.630;2023-03-31T15:05:33;16.00;99.90
16229;DHT22;8222;51.462;12.630;2023-03-31T15:08:19;15.70;99.90
16229;DHT22;8222;51.462;12.630;2023-03-31T15:10:55;15.60;99.90
16229;DHT22;8222;51.462;12.630;2023-03-31T15:13:37;15.60;99.90
16229;DHT22;8222;51.462;12.630;2023-03-31T15:18:55;15.40;99.90
16229;DHT22;8222;51.462;12.630;2023-03-31T15:21:26;15.10;99.90
16229;DHT22;8222;51.462;12.630;2023-03-31T15:23:59;15.10;99.90
16229;DHT22;8222;51.462;12.630;2023-03-31T15:26:29;15.10;99.90
16229;DHT22;8222;51.462;12.630;2023-03-31T15:29:06;15.00;99.90
16229;DHT22;8222;51.462;12.630;2023-03-31T15:31:36;14.80;99.90
16229;DHT22;8222;51.462;12.630;2023-03-31T15:34:26;14.50;99.90
16229;DHT22;8222;51.462;12.630;2023-03-31T15:36:56;14.40;99.90
16229;DHT22;8222;51.462;12.630;2023-03-31T15:39:24;14.40;99.90
16229;DHT22;8222;51.462;12.630;2023-03-31T15:41:53;14.50;99.90
16229;DHT22;8222;51.462;12.630;2023-03-31T15:46:59;14.20;99.90
16229;DHT22;8222;51.462;12.630;2023-03-31T15:49:31;14.00;99.90
16229;DHT22;8222;51.462;12.630;2023-03-31T15:51:57;14.50;99.90
16229;DHT22;8222;51.462;12.630;2023-03-31T15:54:39;14.70;99.90
16229;DHT22;8222;51.462;12.630;2023-03-31T15:57:11;15.00;99.90
16229;DHT22;8222;51.462;12.630;2023-03-31T15:59:53;15.40;99.90
16229;DHT22;8222;51.462;12.630;2023-03-31T16:02:25;15.60;99.90
16229;DHT22;8222;51.462;12.630;2023-03-31T16:04:58;15.60;99.90
16229;DHT22;8222;51.462;12.630;2023-03-31T16:07:28;15.60;99.90
16229;DHT22;8222;51.462;12.630;2023-03-31T16:10:09;15.40;99.90
16229;DHT22;8222;51.462;12.630;2023-03-31T16:12:49;15.40;99.90
16229;DHT22;8222;51.462;12.630;2023-03-31T16:15:20;15.30;99.90
16229;DHT22;8222;51.462;12.630;2023-03-31T16:18:09;15.20;99.90
16229;DHT22;8222;51.462;12.630;2023-03-31T16:20:40;15.00;99.90
16229;DHT22;8222;51.462;12.630;2023-03-31T16:23:16;14.70;99.90
16229;DHT22;8222;51.462;12.630;2023-03-31T16:25:43;14.50;99.90
16229;DHT22;8222;51.462;12.630;2023-03-31T16:28:19;14.40;99.90
16229;DHT22;8222;51.462;12.630;2023-03-31T16:30:49;14.30;99.90
16229;DHT22;8222;51.462;12.630;2023-03-31T16:33:20;14.20;99.90
16229;DHT22;8222;51.462;12.630;2023-03-31T16:35:47;14.00;99.90
16229;DHT22;8222;51.462;12.630;2023-03-31T16:38:15;14.00;99.90
16229;DHT22;8222;51.462;12.630;2023-03-31T16:40:46;13.90;99.90
16229;DHT22;8222;51.462;12.630;2023-03-31T16:43:22;13.80;99.90
16229;DHT22;8222;51.462;12.630;2023-03-31T16:45:50;13.80;99.90
16229;DHT22;8222;51.462;12.630;2023-03-31T16:48:17;13.60;99.90
16229;DHT22;8222;51.462;12.630;2023-03-31T16:50:48;13.40;99.90
16229;DHT22;8222;51.462;12.630;2023-03-31T16:53:22;13.20;99.90
16229;DHT22;8222;51.462;12.630;2023-03-31T16:55:49;13.10;99.90
16229;DHT22;8222;51.462;12.630;2023-03-31T16:58:15;13.00;99.90
16229;DHT22;8222;51.462;12.630;2023-03-31T17:00:44;13.00;99.90
16229;DHT22;8222;51.462;12.630;2023-03-31T17:03:10;13.10;99.90
16229;DHT22;8222;51.462;12.630;2023-03-31T17:05:41;13.00;99.90
16229;DHT22;8222;51.462;12.630;2023-03-31T17:08:12;12.90;99.90
16229;DHT22;8222;51.462;12.630;2023-03-31T17:10:39;12.80;99.90
16229;DHT22;8222;51.462;12.630;2023-03-31T17:13:06;12.70;99.90
16229;DHT22;8222;51.462;12.630;2023-03-31T17:15:32;12.70;99.90
16229;DHT22;8222;51.462;12.630;2023-03-31T17:18:00;12.60;99.90
16229;DHT22;8222;51.462;12.630;2023-03-31T17:20:28;12.60;99.90
16229;DHT22;8222;51.462;12.630;2023-03-31T17:22:54;12.60;99.90
16229;DHT22;8222;51.462;12.630;2023-03-31T17:25:20;12.60;99.90
16229;DHT22;8222;51.462;12.630;2023-03-31T17:27:48;12.60;99.90
16229;DHT22;8222;51.462;12.630;2023-03-31T17:30:18;12.60;99.90
16229;DHT22;8222;51.462;12.630;2023-03-31T17:32:43;12.60;99.90
16229;DHT22;8222;51.462;12.630;2023-03-31T17:35:09;12.50;99.90
16229;DHT22;8222;51.462;12.630;2023-03-31T17:37:36;12.50;99.90
16229;DHT22;8222;51.462;12.630;2023-03-31T17:40:04;12.60;99.90
16229;DHT22;8222;51.462;12.630;2023-03-31T17:42:32;12.60;99.90
16229;DHT22;8222;51.462;12.630;2023-03-31T17:44:57;12.60;99.90
16229;DHT22;8222;51.462;12.630;2023-03-31T17:47:24;12.60;99.90
16229;DHT22;8222;51.462;12.630;2023-03-31T17:49:50;12.50;99.90
16229;DHT22;8222;51.462;12.630;2023-03-31T17:52:18;12.50;99.90
16229;DHT22;8222;51.462;12.630;2023-03-31T17:54:43;12.50;99.90
16229;DHT22;8222;51.462;12.630;2023-03-31T17:57:09;12.40;99.90
16229;DHT22;8222;51.462;12.630;2023-03-31T17:59:38;12.40;99.90
16229;DHT22;8222;51.462;12.630;2023-03-31T18:02:12;12.50;99.90
16229;DHT22;8222;51.462;12.630;2023-03-31T18:04:41;12.60;99.90
16229;DHT22;8222;51.462;12.630;2023-03-31T18:07:11;12.60;99.90
16229;DHT22;8222;51.462;12.630;2023-03-31T18:09:37;12.60;99.90
16229;DHT22;8222;51.462;12.630;2023-03-31T18:12:05;12.60;99.90
16229;DHT22;8222;51.462;12.630;2023-03-31T18:14:31;12.60;99.90
16229;DHT22;8222;51.462;12.630;2023-03-31T18:16:57;12.50;99.90
16229;DHT22;8222;51.462;12.630;2023-03-31T18:19:23;12.40;99.90
16229;DHT22;8222;51.462;12.630;2023-03-31T18:21:49;12.40;99.90
16229;DHT22;8222;51.462;12.630;2023-03-31T18:24:20;12.40;99.90
16229;DHT22;8222;51.462;12.630;2023-03-31T18:26:47;12.40;99.90
16229;DHT22;8222;51.462;12.630;2023-03-31T18:29:14;12.40;99.90
16229;DHT22;8222;51.462;12.630;2023-03-31T18:31:40;12.40;99.90
16229;DHT22;8222;51.462;12.630;2023-03-31T18:34:06;12.40;99.90
16229;DHT22;8222;51.462;12.630;2023-03-31T18:36:32;12.40;99.90